Time;durP1;ratioP1;P1;durP2;ratioP2;P2;SDS_P1;SDS_P2;PMS_P1;PMS_P2;Temp;Humidity;BMP_temperature;BMP_pressure;BME280_temperature;BME280_humidity;BME280_pressure;Samples;Min_cycle;Max_cycle;Signal;HPM_P1;HPM_P2
2024/01/02 00:01:19;;;;;;;3.28;2.58;;;;;;;;;;4821308;29;20042;-82
2024/01/02 00:03:45;;;;;;;5.35;1.13;;;;;;;;;;4813393;29;20042;-82
2024/01/02 00:06:17;;;;;;;5.43;2.13;;;;;;;;;;4799373;29;20057;-83
2024/01/02 00:08:43;;;;;;;2.08;1.17;;;;;;;;;;4802057;29;20489;-82
2024/01/02 00:11:10;;;;;;;1.15;0.50;;;;;;;;;;4795484;29;20062;-83
2024/01/02 00:13:38;;;;;;;1.95;0.90;;;;;;;;;;4808156;29;20050;-83
2024/01/02 00:16:04;;;;;;;5.10;0.73;;;;;;;;;;4812424;29;20054;-83
2024/01/02 00:18:30;;;;;;;2.05;0.47;;;;;;;;;;4804674;29;20047;-83
2024/01/02 00:20:57;;;;;;;6.82;2.25;;;;;;;;;;4820746;29;20061;-82
2024/01/02 00:23:23;;;;;;;5.05;0.90;;;;;;;;;;4804863;29;20591;-82
2024/01/02 00:25:49;;;;;;;13.00;5.32;;;;;;;;;;4820072;29;20057;-83
2024/01/02 00:28:15;;;;;;;3.05;1.48;;;;;;;;;;4801341;29;20591;-83
2024/01/02 00:30:41;;;;;;;1.08;0.70;;;;;;;;;;4821590;29;20038;-82
2024/01/02 00:33:07;;;;;;;5.40;1.98;;;;;;;;;;4819483;29;21140;-83
2024/01/02 00:35:34;;;;;;;0.57;0.28;;;;;;;;;;4819507;29;20054;-83
2024/01/02 00:38:00;;;;;;;0.63;0.40;;;;;;;;;;4821386;29;20141;-82
2024/01/02 00:40:26;;;;;;;0.75;0.40;;;;;;;;;;4822024;29;20063;-82
2024/01/02 00:42:52;;;;;;;0.82;0.35;;;;;;;;;;4815883;29;20119;-82
2024/01/02 00:45:18;;;;;;;3.05;1.10;;;;;;;;;;4804070;29;20067;-82
2024/01/02 00:47:45;;;;;;;2.58;0.45;;;;;;;;;;4813559;29;20049;-82
2024/01/02 00:50:11;;;;;;;2.25;0.90;;;;;;;;;;4803894;29;20053;-82
2024/01/02 00:52:37;;;;;;;2.55;0.70;;;;;;;;;;4804159;29;20420;-82
2024/01/02 00:55:04;;;;;;;3.08;1.25;;;;;;;;;;4820598;29;20050;-82
2024/01/02 00:57:30;;;;;;;1.65;0.95;;;;;;;;;;4822918;29;20053;-82
2024/01/02 00:59:57;;;;;;;3.22;0.73;;;;;;;;;;4807586;29;20191;-82
2024/01/02 01:02:23;;;;;;;9.02;2.05;;;;;;;;;;4813446;29;20137;-82
2024/01/02 01:04:49;;;;;;;11.90;3.90;;;;;;;;;;4823999;29;20603;-83
2024/01/02 01:07:15;;;;;;;12.15;4.65;;;;;;;;;;4824220;29;20050;-83
2024/01/02 01:09:42;;;;;;;10.95;4.78;;;;;;;;;;4807420;29;20153;-83
2024/01/02 01:12:08;;;;;;;22.02;3.60;;;;;;;;;;4824234;29;20085;-83
2024/01/02 01:14:35;;;;;;;6.40;2.95;;;;;;;;;;4804445;29;20066;-83
2024/01/02 01:17:05;;;;;;;8.25;3.30;;;;;;;;;;4826509;29;20046;-83
2024/01/02 01:19:32;;;;;;;1.48;0.98;;;;;;;;;;4824529;29;20509;-82
2024/01/02 01:21:58;;;;;;;1.10;0.47;;;;;;;;;;4807423;29;20046;-83
2024/01/02 01:24:24;;;;;;;1.23;0.73;;;;;;;;;;4823440;29;20044;-82
2024/01/02 01:26:53;;;;;;;1.58;1.05;;;;;;;;;;4802529;29;20422;-82
2024/01/02 01:29:20;;;;;;;2.60;0.80;;;;;;;;;;4807922;29;20133;-82
2024/01/02 01:31:46;;;;;;;1.75;0.90;;;;;;;;;;4807012;29;20671;-82
2024/01/02 01:34:12;;;;;;;3.78;1.08;;;;;;;;;;4816983;29;20046;-82
2024/01/02 01:36:38;;;;;;;0.98;0.73;;;;;;;;;;4809447;29;20043;-82
2024/01/02 01:39:04;;;;;;;3.97;0.98;;;;;;;;;;4809681;29;20837;-82
2024/01/02 01:41:31;;;;;;;0.98;0.30;;;;;;;;;;4823505;29;20054;-82
2024/01/02 01:43:57;;;;;;;0.28;0.10;;;;;;;;;;4826328;29;20050;-82
2024/01/02 01:46:24;;;;;;;0.77;0.57;;;;;;;;;;4806879;29;20054;-82
2024/01/02 01:48:51;;;;;;;0.60;0.30;;;;;;;;;;4823656;29;20077;-82
2024/01/02 01:51:17;;;;;;;0.10;0.00;;;;;;;;;;4822344;29;20046;-82
2024/01/02 01:53:44;;;;;;;6.80;0.75;;;;;;;;;;4819805;29;20042;-82
2024/01/02 01:56:10;;;;;;;0.15;0.10;;;;;;;;;;4817331;29;20485;-82
2024/01/02 01:58:36;;;;;;;0.70;0.22;;;;;;;;;;4824494;29;20087;-82
2024/01/02 02:01:03;;;;;;;1.40;0.65;;;;;;;;;;4823182;29;20050;-83
2024/01/02 02:03:30;;;;;;;0.95;0.65;;;;;;;;;;4823282;29;20038;-82
2024/01/02 02:05:56;;;;;;;2.22;0.77;;;;;;;;;;4812879;29;20050;-82
2024/01/02 02:08:22;;;;;;;0.80;0.50;;;;;;;;;;4807028;29;20400;-82
2024/01/02 02:10:48;;;;;;;1.38;0.65;;;;;;;;;;4819200;29;20097;-82
2024/01/02 02:13:14;;;;;;;4.93;2.75;;;;;;;;;;4812662;29;20405;-83
2024/01/02 02:15:41;;;;;;;2.70;1.17;;;;;;;;;;4822612;29;20481;-82
2024/01/02 02:18:08;;;;;;;0.88;0.30;;;;;;;;;;4825425;29;20550;-83
2024/01/02 02:20:34;;;;;;;1.63;0.77;;;;;;;;;;4827024;29;20803;-83
2024/01/02 02:23:00;;;;;;;2.85;1.10;;;;;;;;;;4818926;29;20045;-82
2024/01/02 02:25:27;;;;;;;0.60;0.40;;;;;;;;;;4823427;29;20123;-82
2024/01/02 02:27:53;;;;;;;0.20;0.10;;;;;;;;;;4822660;29;20050;-82
2024/01/02 02:30:19;;;;;;;2.08;0.73;;;;;;;;;;4807051;29;20046;-83
2024/01/02 02:32:45;;;;;;;2.75;0.52;;;;;;;;;;4820258;29;20042;-82
2024/01/02 02:35:11;;;;;;;2.22;1.10;;;;;;;;;;4803692;29;20043;-82
2024/01/02 02:37:37;;;;;;;3.10;0.80;;;;;;;;;;4800882;29;20122;-83
2024/01/02 02:40:04;;;;;;;1.42;0.93;;;;;;;;;;4822626;29;20043;-82
2024/01/02 02:42:30;;;;;;;0.98;0.20;;;;;;;;;;4806904;29;20058;-82
2024/01/02 02:44:58;;;;;;;2.38;0.55;;;;;;;;;;4806272;29;20554;-83
2024/01/02 02:47:24;;;;;;;0.45;0.22;;;;;;;;;;4806168;29;20071;-83
2024/01/02 02:49:51;;;;;;;0.47;0.30;;;;;;;;;;4806635;29;20451;-82
2024/01/02 02:52:18;;;;;;;1.08;0.32;;;;;;;;;;4813233;29;20046;-82
2024/01/02 02:54:44;;;;;;;0.00;0.00;;;;;;;;;;4799218;29;20055;-82
2024/01/02 02:57:10;;;;;;;0.57;0.20;;;;;;;;;;4796344;29;20062;-82
2024/01/02 02:59:36;;;;;;;1.27;0.25;;;;;;;;;;4825812;29;20078;-83
2024/01/02 03:02:02;;;;;;;0.40;0.10;;;;;;;;;;4822928;29;20042;-83
2024/01/02 03:04:28;;;;;;;0.45;0.20;;;;;;;;;;4805380;29;20165;-82
2024/01/02 03:06:55;;;;;;;1.10;0.30;;;;;;;;;;4813612;29;20893;-82
2024/01/02 03:09:21;;;;;;;0.20;0.10;;;;;;;;;;4823067;29;20042;-82
2024/01/02 03:11:48;;;;;;;0.55;0.43;;;;;;;;;;4805937;29;20042;-82
2024/01/02 03:14:14;;;;;;;0.55;0.28;;;;;;;;;;4820681;29;20046;-82
2024/01/02 03:16:40;;;;;;;1.45;0.47;;;;;;;;;;4805832;29;20736;-82
2024/01/02 03:19:06;;;;;;;1.20;0.65;;;;;;;;;;4821808;29;20046;-82
2024/01/02 03:21:32;;;;;;;0.38;0.20;;;;;;;;;;4821984;29;20055;-83
2024/01/02 03:23:58;;;;;;;0.10;0.08;;;;;;;;;;4804734;29;21159;-82
2024/01/02 03:26:25;;;;;;;0.32;0.13;;;;;;;;;;4803238;29;20058;-83
2024/01/02 03:28:51;;;;;;;0.55;0.30;;;;;;;;;;4786542;29;20074;-82
2024/01/02 03:31:17;;;;;;;1.02;0.30;;;;;;;;;;4795992;29;20158;-83
2024/01/02 03:33:43;;;;;;;0.00;0.00;;;;;;;;;;4800580;29;20043;-82
2024/01/02 03:36:13;;;;;;;0.00;0.00;;;;;;;;;;4788708;29;20406;-83
2024/01/02 03:38:39;;;;;;;0.38;0.10;;;;;;;;;;4786952;29;20043;-83
2024/01/02 03:41:05;;;;;;;0.03;0.00;;;;;;;;;;4790597;29;20057;-82
2024/01/02 03:43:31;;;;;;;1.55;0.47;;;;;;;;;;4808473;29;20042;-82
2024/01/02 03:45:57;;;;;;;0.35;0.17;;;;;;;;;;4786820;29;20051;-82
2024/01/02 03:48:23;;;;;;;3.75;0.28;;;;;;;;;;4807496;29;20043;-82
2024/01/02 03:50:49;;;;;;;1.80;1.08;;;;;;;;;;4811760;29;20051;-82
2024/01/02 03:53:15;;;;;;;0.30;0.17;;;;;;;;;;4808221;29;20043;-82
2024/01/02 03:55:41;;;;;;;0.13;0.10;;;;;;;;;;4813412;29;20058;-82
2024/01/02 03:58:07;;;;;;;0.40;0.32;;;;;;;;;;4793347;29;20039;-82
2024/01/02 04:00:35;;;;;;;0.22;0.08;;;;;;;;;;4786328;29;20051;-82
2024/01/02 04:03:01;;;;;;;0.00;0.00;;;;;;;;;;4797783;29;20125;-83
2024/01/02 04:05:28;;;;;;;1.25;0.10;;;;;;;;;;4789834;29;20055;-83
2024/01/02 04:07:54;;;;;;;0.10;0.03;;;;;;;;;;4807009;29;20046;-83
2024/01/02 04:10:20;;;;;;;2.28;0.50;;;;;;;;;;4812706;29;20058;-83
2024/01/02 04:12:46;;;;;;;1.65;0.80;;;;;;;;;;4786954;29;20084;-83
2024/01/02 04:15:12;;;;;;;2.88;1.15;;;;;;;;;;4801097;29;20133;-83
2024/01/02 04:17:38;;;;;;;0.10;0.10;;;;;;;;;;4803220;29;20783;-83
2024/01/02 04:20:04;;;;;;;1.05;0.60;;;;;;;;;;4795605;29;20122;-83
2024/01/02 04:22:30;;;;;;;0.17;0.10;;;;;;;;;;4772698;29;20043;-83
2024/01/02 04:24:56;;;;;;;0.10;0.10;;;;;;;;;;4787491;29;20068;-83
2024/01/02 04:27:23;;;;;;;1.05;0.20;;;;;;;;;;4796487;29;20058;-82
2024/01/02 04:29:49;;;;;;;0.28;0.10;;;;;;;;;;4821080;29;20053;-83
2024/01/02 04:32:15;;;;;;;0.70;0.05;;;;;;;;;;4819789;29;20064;-82
2024/01/02 04:34:41;;;;;;;1.35;0.10;;;;;;;;;;4796828;29;20055;-83
2024/01/02 04:37:07;;;;;;;1.45;0.13;;;;;;;;;;4801329;29;20042;-82
2024/01/02 04:39:33;;;;;;;0.88;0.08;;;;;;;;;;4819431;29;20653;-83
2024/01/02 04:42:01;;;;;;;0.10;0.00;;;;;;;;;;4811152;29;20481;-83
2024/01/02 04:44:27;;;;;;;0.30;0.20;;;;;;;;;;4809075;29;20042;-83
2024/01/02 04:46:53;;;;;;;1.40;0.52;;;;;;;;;;4820161;29;20133;-83
2024/01/02 04:49:19;;;;;;;0.10;0.10;;;;;;;;;;4817922;29;20046;-82
2024/01/02 04:51:45;;;;;;;0.30;0.22;;;;;;;;;;4820371;29;20047;-83
2024/01/02 04:54:11;;;;;;;0.35;0.22;;;;;;;;;;4806525;29;20141;-83
2024/01/02 04:56:37;;;;;;;0.00;0.00;;;;;;;;;;4793534;29;20076;-83
2024/01/02 04:59:03;;;;;;;0.25;0.15;;;;;;;;;;4807084;29;20055;-83
2024/01/02 05:01:30;;;;;;;0.32;0.30;;;;;;;;;;4803977;29;20443;-83
2024/01/02 05:03:56;;;;;;;0.63;0.10;;;;;;;;;;4802742;29;20066;-83
2024/01/02 05:06:23;;;;;;;0.20;0.10;;;;;;;;;;4804289;29;20097;-82
2024/01/02 05:08:49;;;;;;;0.00;0.00;;;;;;;;;;4824783;29;20046;-82
2024/01/02 05:11:15;;;;;;;0.22;0.17;;;;;;;;;;4804316;29;20149;-83
2024/01/02 05:13:41;;;;;;;0.00;0.00;;;;;;;;;;4809500;29;20488;-83
2024/01/02 05:16:08;;;;;;;6.85;0.22;;;;;;;;;;4824394;29;20050;-82
2024/01/02 05:18:34;;;;;;;0.10;0.05;;;;;;;;;;4803374;29;20046;-82
2024/01/02 05:21:00;;;;;;;2.65;0.38;;;;;;;;;;4820699;29;20047;-82
2024/01/02 05:23:26;;;;;;;0.25;0.00;;;;;;;;;;4808408;29;20569;-83
2024/01/02 05:25:52;;;;;;;1.65;0.65;;;;;;;;;;4820308;29;20133;-83
2024/01/02 05:28:18;;;;;;;0.30;0.20;;;;;;;;;;4803602;29;20038;-83
2024/01/02 05:30:44;;;;;;;0.65;0.40;;;;;;;;;;4815853;29;20047;-83
2024/01/02 05:33:10;;;;;;;0.30;0.15;;;;;;;;;;4815858;29;20785;-83
2024/01/02 05:35:37;;;;;;;0.22;0.20;;;;;;;;;;4803022;29;20141;-83
2024/01/02 05:38:03;;;;;;;1.45;0.52;;;;;;;;;;4804019;29;20049;-84
2024/01/02 05:40:29;;;;;;;1.70;0.65;;;;;;;;;;4800360;29;20090;-82
2024/01/02 05:42:55;;;;;;;0.47;0.40;;;;;;;;;;4804363;29;20119;-83
2024/01/02 05:45:21;;;;;;;15.10;2.78;;;;;;;;;;4822939;29;20053;-83
2024/01/02 05:47:47;;;;;;;2.00;1.08;;;;;;;;;;4823541;29;20049;-83
2024/01/02 05:50:13;;;;;;;4.95;0.88;;;;;;;;;;4810661;29;20091;-82
2024/01/02 05:52:42;;;;;;;0.88;0.30;;;;;;;;;;4811797;29;20042;-82
2024/01/02 05:55:08;;;;;;;0.98;0.28;;;;;;;;;;4798535;29;20492;-82
2024/01/02 05:57:35;;;;;;;1.83;0.82;;;;;;;;;;4806932;29;20560;-82
2024/01/02 06:00:01;;;;;;;0.20;0.20;;;;;;;;;;4816831;29;20046;-83
2024/01/02 06:02:27;;;;;;;0.57;0.40;;;;;;;;;;4823241;29;20082;-84
2024/01/02 06:04:53;;;;;;;0.65;0.30;;;;;;;;;;4806548;29;20072;-83
2024/01/02 06:07:19;;;;;;;2.15;0.90;;;;;;;;;;4822419;29;20469;-82
2024/01/02 06:09:45;;;;;;;0.82;0.50;;;;;;;;;;4796700;29;20493;-82
2024/01/02 06:12:11;;;;;;;3.08;0.93;;;;;;;;;;4822346;29;20057;-82
2024/01/02 06:14:37;;;;;;;1.13;0.77;;;;;;;;;;4823078;29;20046;-83
2024/01/02 06:17:03;;;;;;;2.67;1.00;;;;;;;;;;4802567;29;20054;-82
2024/01/02 06:19:34;;;;;;;1.67;0.57;;;;;;;;;;4823611;29;20070;-83
2024/01/02 06:25:10;;;;;;;1.88;0.82;;;;;;;;;;4812745;29;20573;-84
2024/01/02 06:27:37;;;;;;;1.30;0.60;;;;;;;;;;4805790;29;20142;-83
2024/01/02 06:30:04;;;;;;;0.45;0.20;;;;;;;;;;4812282;29;20588;-83
2024/01/02 06:32:34;;;;;;;3.38;0.93;;;;;;;;;;4806162;29;20537;-83
2024/01/02 06:35:00;;;;;;;1.20;0.68;;;;;;;;;;4818185;29;20047;-82
2024/01/02 06:37:26;;;;;;;0.73;0.50;;;;;;;;;;4828955;29;20105;-82
2024/01/02 06:39:52;;;;;;;0.50;0.30;;;;;;;;;;4803990;29;20046;-82
2024/01/02 06:42:18;;;;;;;0.88;0.60;;;;;;;;;;4808586;29;20447;-82
2024/01/02 06:44:45;;;;;;;5.82;0.52;;;;;;;;;;4806126;29;20050;-82
2024/01/02 06:47:11;;;;;;;0.82;0.52;;;;;;;;;;4826140;29;20050;-83
2024/01/02 06:49:37;;;;;;;0.22;0.10;;;;;;;;;;4802937;29;20043;-83
2024/01/02 06:52:03;;;;;;;1.17;0.30;;;;;;;;;;4801286;29;20614;-83
2024/01/02 06:54:30;;;;;;;0.80;0.20;;;;;;;;;;4812140;29;20057;-82
2024/01/02 06:56:56;;;;;;;1.40;0.52;;;;;;;;;;4817402;29;20050;-84
2024/01/02 06:59:22;;;;;;;2.38;0.30;;;;;;;;;;4813952;29;20047;-83
2024/01/02 07:01:48;;;;;;;0.73;0.20;;;;;;;;;;4823314;29;20537;-83
2024/01/02 07:04:15;;;;;;;0.73;0.43;;;;;;;;;;4821776;29;20054;-83
2024/01/02 07:06:41;;;;;;;1.33;0.52;;;;;;;;;;4821995;29;20106;-84
2024/01/02 07:09:06;;;;;;;1.25;0.60;;;;;;;;;;4814418;29;20483;-84
2024/01/02 07:11:33;;;;;;;0.98;0.65;;;;;;;;;;4822246;29;20047;-84
2024/01/02 07:13:59;;;;;;;0.10;0.10;;;;;;;;;;4823064;29;20072;-84
2024/01/02 07:16:25;;;;;;;1.15;0.38;;;;;;;;;;4807392;29;20592;-84
2024/01/02 07:18:51;;;;;;;0.30;0.10;;;;;;;;;;4801288;29;20054;-84
2024/01/02 07:21:17;;;;;;;1.70;0.43;;;;;;;;;;4799548;29;20062;-84
2024/01/02 07:23:44;;;;;;;1.42;0.73;;;;;;;;;;4811815;29;20057;-84
2024/01/02 07:26:10;;;;;;;2.05;0.40;;;;;;;;;;4822547;29;20141;-84
2024/01/02 07:28:36;;;;;;;1.63;0.70;;;;;;;;;;4806245;29;20158;-83
2024/01/02 07:31:02;;;;;;;0.85;0.30;;;;;;;;;;4804748;29;20038;-84
2024/01/02 07:33:28;;;;;;;0.95;0.45;;;;;;;;;;4808314;29;20451;-84
2024/01/02 07:35:55;;;;;;;2.65;0.80;;;;;;;;;;4814947;29;20050;-84
2024/01/02 07:38:25;;;;;;;0.10;0.10;;;;;;;;;;4805311;29;20042;-84
2024/01/02 07:40:52;;;;;;;0.88;0.30;;;;;;;;;;4805558;29;20042;-83
2024/01/02 07:43:18;;;;;;;0.52;0.50;;;;;;;;;;4822091;29;20050;-84
2024/01/02 07:45:44;;;;;;;1.08;0.50;;;;;;;;;;4804719;29;20055;-84
2024/01/02 07:48:10;;;;;;;0.95;0.28;;;;;;;;;;4796671;29;20087;-83
2024/01/02 07:50:36;;;;;;;3.83;0.60;;;;;;;;;;4793644;29;20112;-83
2024/01/02 07:53:02;;;;;;;1.25;0.20;;;;;;;;;;4804498;29;20065;-84
2024/01/02 07:55:28;;;;;;;1.77;1.02;;;;;;;;;;4808438;29;20141;-83
2024/01/02 07:57:54;;;;;;;0.50;0.40;;;;;;;;;;4800116;29;20067;-83
2024/01/02 08:00:20;;;;;;;0.55;0.32;;;;;;;;;;4801927;29;20046;-83
2024/01/02 08:02:46;;;;;;;5.95;1.40;;;;;;;;;;4788502;29;20055;-83
2024/01/02 08:05:12;;;;;;;1.10;0.60;;;;;;;;;;4820310;29;20046;-83
2024/01/02 08:07:38;;;;;;;3.50;1.08;;;;;;;;;;4821963;29;20042;-83
2024/01/02 08:10:04;;;;;;;0.82;0.50;;;;;;;;;;4821190;29;20701;-83
2024/01/02 08:12:30;;;;;;;0.43;0.28;;;;;;;;;;4807696;29;20046;-83
2024/01/02 08:14:56;;;;;;;0.75;0.15;;;;;;;;;;4828774;29;20057;-83
2024/01/02 08:17:23;;;;;;;2.47;1.20;;;;;;;;;;4822175;29;20050;-84
2024/01/02 08:19:52;;;;;;;2.58;0.60;;;;;;;;;;4805427;29;20818;-83
2024/01/02 08:22:21;;;;;;;1.75;0.80;;;;;;;;;;4822082;29;20038;-83
2024/01/02 08:24:47;;;;;;;1.05;0.50;;;;;;;;;;4823670;29;20050;-83
2024/01/02 08:27:14;;;;;;;0.75;0.63;;;;;;;;;;4803651;29;20058;-83
2024/01/02 08:29:40;;;;;;;1.20;0.45;;;;;;;;;;4815629;29;20492;-83
2024/01/02 08:32:06;;;;;;;0.63;0.22;;;;;;;;;;4821579;29;20118;-83
2024/01/02 08:34:32;;;;;;;12.43;1.45;;;;;;;;;;4804141;29;20046;-83
2024/01/02 08:36:58;;;;;;;8.93;1.67;;;;;;;;;;4814808;29;20773;-83
2024/01/02 08:39:24;;;;;;;3.50;1.95;;;;;;;;;;4804015;29;20042;-82
2024/01/02 08:41:50;;;;;;;1.80;0.98;;;;;;;;;;4820949;29;20390;-83
2024/01/02 08:44:16;;;;;;;3.45;1.83;;;;;;;;;;4821271;29;20381;-83
2024/01/02 08:46:42;;;;;;;1.15;0.85;;;;;;;;;;4821065;29;20198;-83
2024/01/02 08:49:11;;;;;;;4.15;1.65;;;;;;;;;;4803463;29;20667;-83
2024/01/02 08:51:37;;;;;;;2.28;1.38;;;;;;;;;;4800619;29;20060;-83
2024/01/02 08:54:04;;;;;;;1.88;1.17;;;;;;;;;;4820153;29;20057;-84
2024/01/02 08:56:30;;;;;;;1.55;1.20;;;;;;;;;;4801647;29;20059;-83
2024/01/02 08:58:56;;;;;;;0.68;0.63;;;;;;;;;;4797919;29;20054;-84
2024/01/02 09:01:22;;;;;;;2.85;1.27;;;;;;;;;;4803681;29;20053;-83
2024/01/02 09:03:48;;;;;;;1.40;0.85;;;;;;;;;;4818116;29;20050;-84
2024/01/02 09:06:19;;;;;;;1.58;0.70;;;;;;;;;;4808981;29;20508;-84
2024/01/02 09:08:45;;;;;;;2.55;0.55;;;;;;;;;;4804968;29;20047;-84
2024/01/02 09:11:11;;;;;;;0.52;0.30;;;;;;;;;;4804105;29;20087;-84
2024/01/02 09:13:38;;;;;;;1.25;0.68;;;;;;;;;;4824625;29;20642;-84
2024/01/02 09:16:04;;;;;;;0.65;0.30;;;;;;;;;;4801160;29;20431;-84
2024/01/02 09:18:30;;;;;;;2.58;0.57;;;;;;;;;;4806235;29;20390;-84
2024/01/02 09:20:57;;;;;;;2.90;1.55;;;;;;;;;;4805906;29;20045;-83
2024/01/02 09:23:23;;;;;;;3.28;1.00;;;;;;;;;;4830410;29;20046;-83
2024/01/02 09:25:50;;;;;;;6.28;2.13;;;;;;;;;;4807428;29;20058;-84
2024/01/02 09:28:17;;;;;;;3.05;2.00;;;;;;;;;;4804377;29;20043;-83
2024/01/02 09:30:44;;;;;;;4.97;2.20;;;;;;;;;;4812753;29;20103;-83
2024/01/02 09:33:10;;;;;;;3.47;1.50;;;;;;;;;;4807618;29;20117;-84
2024/01/02 09:35:36;;;;;;;6.00;2.13;;;;;;;;;;4807871;29;20053;-84
2024/01/02 09:38:04;;;;;;;2.13;1.10;;;;;;;;;;4817343;29;20183;-84
2024/01/02 09:40:37;;;;;;;1.65;0.77;;;;;;;;;;4801075;29;20123;-84
2024/01/02 09:43:22;;;;;;;1.10;0.80;;;;;;;;;;4815214;29;20050;-84
2024/01/02 09:45:58;;;;;;;2.78;1.15;;;;;;;;;;4827449;29;20124;-83
2024/01/02 09:48:54;;;;;;;1.25;0.73;;;;;;;;;;4816806;29;20137;-84
2024/01/02 09:51:23;;;;;;;1.90;0.82;;;;;;;;;;4822791;29;20117;-83
2024/01/02 09:54:16;;;;;;;4.70;1.10;;;;;;;;;;4806906;29;20047;-84
2024/01/02 09:56:42;;;;;;;7.60;1.13;;;;;;;;;;4787858;29;20042;-84
2024/01/02 09:59:15;;;;;;;0.93;0.50;;;;;;;;;;4814627;29;20045;-84
2024/01/02 10:01:59;;;;;;;8.95;1.70;;;;;;;;;;4806287;29;20179;-84
2024/01/02 10:04:44;;;;;;;4.57;2.58;;;;;;;;;;4805571;29;20378;-84
2024/01/02 10:07:13;;;;;;;8.88;3.83;;;;;;;;;;4805195;29;20049;-84
2024/01/02 10:09:47;;;;;;;4.60;1.77;;;;;;;;;;4804583;29;20050;-84
2024/01/02 10:12:19;;;;;;;4.72;1.83;;;;;;;;;;4804334;29;20926;-84
2024/01/02 10:15:00;;;;;;;4.38;1.08;;;;;;;;;;4824189;29;20107;-84
2024/01/02 10:17:45;;;;;;;2.83;1.65;;;;;;;;;;4822394;29;20062;-84
2024/01/02 10:20:30;;;;;;;1.42;0.95;;;;;;;;;;4805277;29;20174;-84
2024/01/02 10:23:19;;;;;;;6.18;1.67;;;;;;;;;;4811280;29;20086;-84
2024/01/02 10:25:49;;;;;;;3.97;1.05;;;;;;;;;;4782234;29;20061;-84
2024/01/02 10:28:18;;;;;;;2.47;0.95;;;;;;;;;;4804753;29;20042;-83
2024/01/02 10:30:47;;;;;;;2.28;1.02;;;;;;;;;;4823081;29;20050;-84
2024/01/02 10:33:25;;;;;;;1.23;0.80;;;;;;;;;;4810421;29;20046;-84
2024/01/02 10:35:58;;;;;;;3.10;1.65;;;;;;;;;;4835950;29;20542;-84
2024/01/02 10:38:24;;;;;;;8.05;1.33;;;;;;;;;;4805635;29;20070;-84
2024/01/02 10:40:51;;;;;;;1.77;1.13;;;;;;;;;;4804311;29;20058;-84
2024/01/02 10:43:28;;;;;;;2.13;1.52;;;;;;;;;;4798575;29;20667;-83
2024/01/02 10:46:26;;;;;;;1.33;0.70;;;;;;;;;;4821290;29;20123;-84
2024/01/02 10:48:55;;;;;;;1.85;0.57;;;;;;;;;;4768540;29;20133;-84
2024/01/02 10:51:40;;;;;;;1.88;0.90;;;;;;;;;;4806713;29;20500;-83
2024/01/02 10:54:11;;;;;;;2.08;0.95;;;;;;;;;;4814809;29;20054;-84
2024/01/02 10:56:43;;;;;;;2.75;1.30;;;;;;;;;;4840544;29;20514;-84
2024/01/02 10:59:09;;;;;;;2.63;0.77;;;;;;;;;;4816561;29;20046;-84
2024/01/02 11:01:37;;;;;;;3.42;1.17;;;;;;;;;;4801713;29;20571;-84
2024/01/02 11:04:07;;;;;;;4.13;1.65;;;;;;;;;;4788905;29;20053;-84
2024/01/02 11:06:34;;;;;;;2.75;1.40;;;;;;;;;;4807833;29;20051;-84
2024/01/02 11:09:07;;;;;;;2.13;1.17;;;;;;;;;;4812807;29;20389;-85
2024/01/02 11:11:37;;;;;;;2.53;1.40;;;;;;;;;;4813938;29;20038;-83
2024/01/02 11:14:03;;;;;;;2.53;0.55;;;;;;;;;;4806374;29;20397;-83
2024/01/02 11:16:30;;;;;;;1.52;0.82;;;;;;;;;;4799286;29;20054;-83
2024/01/02 11:18:58;;;;;;;6.18;1.50;;;;;;;;;;4803321;29;20084;-83
2024/01/02 11:21:29;;;;;;;0.68;0.65;;;;;;;;;;4822283;29;20115;-84
2024/01/02 11:23:56;;;;;;;0.65;0.30;;;;;;;;;;4802860;29;20045;-84
2024/01/02 11:26:26;;;;;;;1.77;0.88;;;;;;;;;;4798812;29;20062;-84
2024/01/02 11:28:53;;;;;;;1.42;0.47;;;;;;;;;;4825556;29;20054;-83
2024/01/02 11:31:20;;;;;;;2.90;0.68;;;;;;;;;;4805194;29;20057;-84
2024/01/02 11:34:13;;;;;;;8.88;1.15;;;;;;;;;;4799101;29;20073;-84
2024/01/02 11:36:45;;;;;;;2.17;0.98;;;;;;;;;;4782970;29;20055;-84
2024/01/02 11:39:15;;;;;;;1.67;0.93;;;;;;;;;;4815201;29;20095;-83
2024/01/02 11:41:44;;;;;;;3.90;0.80;;;;;;;;;;4821094;29;20050;-83
2024/01/02 11:44:24;;;;;;;2.53;1.20;;;;;;;;;;4821923;29;20038;-84
2024/01/02 11:46:55;;;;;;;0.93;0.57;;;;;;;;;;4814801;29;20058;-83
2024/01/02 11:49:23;;;;;;;1.20;0.52;;;;;;;;;;4805623;29;20389;-83
2024/01/02 11:51:56;;;;;;;0.85;0.38;;;;;;;;;;4812241;29;20213;-83
2024/01/02 11:54:34;;;;;;;0.80;0.38;;;;;;;;;;4822162;29;20499;-84
2024/01/02 11:57:00;;;;;;;2.10;0.47;;;;;;;;;;4804687;29;20095;-83
2024/01/02 11:59:33;;;;;;;0.88;0.45;;;;;;;;;;4822246;29;20103;-83
2024/01/02 12:02:02;;;;;;;0.73;0.40;;;;;;;;;;4804532;29;20058;-84
2024/01/02 12:04:44;;;;;;;2.38;0.90;;;;;;;;;;4808640;29;20081;-83
2024/01/02 12:07:10;;;;;;;0.73;0.47;;;;;;;;;;4805066;29;20133;-83
2024/01/02 12:09:40;;;;;;;3.00;0.22;;;;;;;;;;4822099;29;20117;-83
2024/01/02 12:12:06;;;;;;;1.02;0.60;;;;;;;;;;4806568;29;20045;-83
2024/01/02 12:14:32;;;;;;;1.27;0.68;;;;;;;;;;4822021;29;20046;-83
2024/01/02 12:17:01;;;;;;;0.30;0.25;;;;;;;;;;4821271;29;20913;-83
2024/01/02 12:19:28;;;;;;;0.98;0.52;;;;;;;;;;4821003;29;20085;-83
2024/01/02 12:21:56;;;;;;;0.35;0.15;;;;;;;;;;4821014;29;20064;-84
2024/01/02 12:24:23;;;;;;;4.47;0.90;;;;;;;;;;4818832;29;20146;-83
2024/01/02 12:26:52;;;;;;;2.00;0.70;;;;;;;;;;4802697;29;20055;-83
2024/01/02 12:29:27;;;;;;;4.15;1.33;;;;;;;;;;4808386;29;20128;-83
2024/01/02 12:31:57;;;;;;;0.30;0.20;;;;;;;;;;4802280;29;20058;-83
2024/01/02 12:34:32;;;;;;;0.30;0.20;;;;;;;;;;4805023;29;20076;-84
2024/01/02 12:37:02;;;;;;;0.47;0.25;;;;;;;;;;4787921;29;20054;-84
2024/01/02 12:39:31;;;;;;;2.85;0.60;;;;;;;;;;4804973;29;20453;-83
2024/01/02 12:41:59;;;;;;;1.17;0.65;;;;;;;;;;4792681;29;20051;-83
2024/01/02 12:44:29;;;;;;;0.55;0.28;;;;;;;;;;4805058;29;20061;-84
2024/01/02 12:47:09;;;;;;;0.88;0.45;;;;;;;;;;4803287;29;20091;-84
2024/01/02 12:49:46;;;;;;;1.67;0.73;;;;;;;;;;4817181;29;20050;-84
2024/01/02 12:52:18;;;;;;;2.13;1.02;;;;;;;;;;4809013;29;20095;-83
2024/01/02 12:54:44;;;;;;;;;;;;;;;;;;4799360;29;20054;-83
2024/01/02 12:57:11;;;;;;;0.52;0.15;;;;;;;;;;4804806;29;19923;-83
2024/01/02 12:59:38;;;;;;;0.80;0.52;;;;;;;;;;4818497;29;20049;-84
2024/01/02 13:02:04;;;;;;;5.93;1.50;;;;;;;;;;4830908;29;20714;-84
2024/01/02 13:04:34;;;;;;;1.15;0.80;;;;;;;;;;4807941;29;20049;-84
2024/01/02 13:07:02;;;;;;;2.08;1.20;;;;;;;;;;4833882;29;20122;-84
2024/01/02 13:09:28;;;;;;;1.30;0.85;;;;;;;;;;4799480;29;20154;-84
2024/01/02 13:11:56;;;;;;;1.58;0.77;;;;;;;;;;4826314;29;20560;-84
2024/01/02 13:14:23;;;;;;;1.60;0.55;;;;;;;;;;4820843;29;20053;-84
2024/01/02 13:16:49;;;;;;;2.28;1.00;;;;;;;;;;4818800;29;20052;-83
2024/01/02 13:19:15;;;;;;;1.50;0.77;;;;;;;;;;4819526;29;20046;-84
2024/01/02 13:21:41;;;;;;;1.05;0.43;;;;;;;;;;4804259;29;20133;-84
2024/01/02 13:24:09;;;;;;;2.67;1.13;;;;;;;;;;4809425;29;20050;-84
2024/01/02 13:26:45;;;;;;;0.40;0.20;;;;;;;;;;4804104;29;20070;-84
2024/01/02 13:29:15;;;;;;;1.83;0.77;;;;;;;;;;4824496;29;20044;-83
2024/01/02 13:31:42;;;;;;;1.95;0.93;;;;;;;;;;4826196;29;20100;-83
2024/01/02 13:34:08;;;;;;;2.60;1.55;;;;;;;;;;4824819;29;20103;-83
2024/01/02 13:36:47;;;;;;;1.40;0.98;;;;;;;;;;4825269;29;20046;-84
2024/01/02 13:39:44;;;;;;;1.98;1.15;;;;;;;;;;4820461;29;20050;-84
2024/01/02 13:42:11;;;;;;;1.75;0.90;;;;;;;;;;4798288;29;21081;-83
2024/01/02 13:44:38;;;;;;;4.45;1.45;;;;;;;;;;4802488;29;20058;-83
2024/01/02 13:47:05;;;;;;;1.58;1.05;;;;;;;;;;4794058;29;20039;-83
2024/01/02 13:49:51;;;;;;;3.60;1.58;;;;;;;;;;4804128;29;20043;-83
2024/01/02 13:52:28;;;;;;;5.57;0.90;;;;;;;;;;4806993;29;20039;-83
2024/01/02 13:54:54;;;;;;;1.02;0.40;;;;;;;;;;4792345;29;20050;-83
2024/01/02 13:57:28;;;;;;;1.00;0.32;;;;;;;;;;4816130;29;20782;-83
2024/01/02 13:59:54;;;;;;;0.45;0.30;;;;;;;;;;4803886;29;20446;-83
2024/01/02 14:02:27;;;;;;;0.28;0.20;;;;;;;;;;4802660;29;20055;-83
2024/01/02 14:04:56;;;;;;;0.10;0.10;;;;;;;;;;4818612;29;20034;-83
2024/01/02 14:07:24;;;;;;;0.10;0.10;;;;;;;;;;4806916;29;20098;-82
2024/01/02 14:09:50;;;;;;;1.05;0.55;;;;;;;;;;4825616;29;20038;-83
2024/01/02 14:12:17;;;;;;;0.55;0.35;;;;;;;;;;4807452;29;20055;-83
2024/01/02 14:14:52;;;;;;;1.10;0.82;;;;;;;;;;4806628;29;20284;-83
2024/01/02 14:17:26;;;;;;;2.42;0.38;;;;;;;;;;4800253;29;20058;-83
2024/01/02 14:19:56;;;;;;;6.32;0.85;;;;;;;;;;4794953;29;20049;-82
2024/01/02 14:22:42;;;;;;;1.77;0.57;;;;;;;;;;4822858;29;20054;-83
2024/01/02 14:25:34;;;;;;;1.40;0.95;;;;;;;;;;4806939;29;20038;-82
2024/01/02 14:28:15;;;;;;;0.90;0.60;;;;;;;;;;4790992;29;20055;-83
2024/01/02 14:30:41;;;;;;;2.10;0.98;;;;;;;;;;4809974;29;20053;-83
2024/01/02 14:33:07;;;;;;;1.65;0.85;;;;;;;;;;4804095;29;20038;-83
2024/01/02 14:35:36;;;;;;;2.45;0.60;;;;;;;;;;4811872;29;20469;-83
2024/01/02 14:38:16;;;;;;;0.50;0.30;;;;;;;;;;4802542;29;20054;-83
2024/01/02 14:41:01;;;;;;;2.00;1.17;;;;;;;;;;4816949;29;20058;-83
2024/01/02 14:43:27;;;;;;;3.03;1.33;;;;;;;;;;4788268;29;20073;-83
2024/01/02 14:46:18;;;;;;;0.60;0.25;;;;;;;;;;4821345;29;20584;-83
2024/01/02 14:48:59;;;;;;;1.13;0.50;;;;;;;;;;4808750;29;20099;-82
2024/01/02 14:51:31;;;;;;;11.30;0.60;;;;;;;;;;4792495;29;20529;-83
2024/01/02 14:54:06;;;;;;;2.92;1.10;;;;;;;;;;4798574;29;20165;-83